sensor_id;sensor_type;location;lat;lon;timestamp;P1;durP1;ratioP1;P2;durP2;ratioP2
44098;SDS011;29762;50.086;14.364;2023-12-29T00:01:45;1.92;;;0.90;;
44098;SDS011;29762;50.086;14.364;2023-12-29T00:12:04;1.98;;;0.90;;
44098;SDS011;29762;50.086;14.364;2023-12-29T00:22:24;0.80;;;0.80;;
44098;SDS011;29762;50.086;14.364;2023-12-29T00:32:46;0.90;;;0.90;;
44098;SDS011;29762;50.086;14.364;2023-12-29T00:43:06;2.05;;;0.70;;
44098;SDS011;29762;50.086;14.364;2023-12-29T00:53:25;1.13;;;0.88;;
44098;SDS011;29762;50.086;14.364;2023-12-29T01:03:45;0.85;;;0.70;;
44098;SDS011;29762;50.086;14.364;2023-12-29T01:14:05;1.50;;;0.98;;
44098;SDS011;29762;50.086;14.364;2023-12-29T01:24:26;0.73;;;0.73;;
44098;SDS011;29762;50.086;14.364;2023-12-29T01:34:45;0.65;;;0.60;;
44098;SDS011;29762;50.086;14.364;2023-12-29T01:45:05;0.90;;;0.80;;
44098;SDS011;29762;50.086;14.364;2023-12-29T01:55:25;0.80;;;0.80;;
44098;SDS011;29762;50.086;14.364;2023-12-29T02:05:45;0.85;;;0.60;;
44098;SDS011;29762;50.086;14.364;2023-12-29T02:16:07;0.70;;;0.70;;
44098;SDS011;29762;50.086;14.364;2023-12-29T02:26:30;0.75;;;0.70;;
44098;SDS011;29762;50.086;14.364;2023-12-29T02:36:51;0.60;;;0.60;;
44098;SDS011;29762;50.086;14.364;2023-12-29T02:47:10;0.70;;;0.60;;
44098;SDS011;29762;50.086;14.364;2023-12-29T02:57:30;0.90;;;0.77;;
44098;SDS011;29762;50.086;14.364;2023-12-29T03:07:49;0.70;;;0.70;;
44098;SDS011;29762;50.086;14.364;2023-12-29T03:18:08;0.77;;;0.70;;
44098;SDS011;29762;50.086;14.364;2023-12-29T03:28:28;0.70;;;0.60;;
44098;SDS011;29762;50.086;14.364;2023-12-29T03:38:47;0.65;;;0.65;;
44098;SDS011;29762;50.086;14.364;2023-12-29T03:49:06;1.60;;;0.75;;
44098;SDS011;29762;50.086;14.364;2023-12-29T03:59:27;0.70;;;0.70;;
44098;SDS011;29762;50.086;14.364;2023-12-29T04:09:46;0.70;;;0.70;;
44098;SDS011;29762;50.086;14.364;2023-12-29T04:20:06;0.70;;;0.70;;
44098;SDS011;29762;50.086;14.364;2023-12-29T04:30:25;0.60;;;0.60;;
44098;SDS011;29762;50.086;14.364;2023-12-29T04:40:48;0.80;;;0.80;;
44098;SDS011;29762;50.086;14.364;2023-12-29T04:51:07;0.45;;;0.45;;
44098;SDS011;29762;50.086;14.364;2023-12-29T05:01:26;0.85;;;0.70;;
44098;SDS011;29762;50.086;14.364;2023-12-29T05:11:47;0.68;;;0.68;;
44098;SDS011;29762;50.086;14.364;2023-12-29T05:22:07;0.90;;;0.80;;
44098;SDS011;29762;50.086;14.364;2023-12-29T05:32:26;0.63;;;0.60;;
44098;SDS011;29762;50.086;14.364;2023-12-29T05:42:45;3.03;;;0.70;;
44098;SDS011;29762;50.086;14.364;2023-12-29T05:53:05;1.02;;;0.73;;
44098;SDS011;29762;50.086;14.364;2023-12-29T06:03:26;0.68;;;0.60;;
44098;SDS011;29762;50.086;14.364;2023-12-29T06:13:45;4.15;;;1.55;;
44098;SDS011;29762;50.086;14.364;2023-12-29T06:24:05;9.10;;;2.58;;
44098;SDS011;29762;50.086;14.364;2023-12-29T06:34:25;10.73;;;2.92;;
44098;SDS011;29762;50.086;14.364;2023-12-29T06:44:45;12.35;;;3.55;;
44098;SDS011;29762;50.086;14.364;2023-12-29T06:55:05;6.47;;;2.30;;
44098;SDS011;29762;50.086;14.364;2023-12-29T07:05:26;11.30;;;3.30;;
44098;SDS011;29762;50.086;14.364;2023-12-29T07:15:48;7.97;;;3.45;;
44098;SDS011;29762;50.086;14.364;2023-12-29T07:26:08;6.40;;;2.95;;
44098;SDS011;29762;50.086;14.364;2023-12-29T07:36:27;10.50;;;2.90;;
44098;SDS011;29762;50.086;14.364;2023-12-29T07:46:47;9.75;;;2.70;;
44098;SDS011;29762;50.086;14.364;2023-12-29T07:57:06;6.85;;;2.88;;
44098;SDS011;29762;50.086;14.364;2023-12-29T08:07:25;6.05;;;2.63;;
44098;SDS011;29762;50.086;14.364;2023-12-29T08:17:45;8.05;;;2.80;;
44098;SDS011;29762;50.086;14.364;2023-12-29T08:28:04;6.28;;;2.47;;
44098;SDS011;29762;50.086;14.364;2023-12-29T08:38:24;5.18;;;2.08;;
44098;SDS011;29762;50.086;14.364;2023-12-29T08:48:44;6.68;;;2.58;;
44098;SDS011;29762;50.086;14.364;2023-12-29T08:59:03;4.45;;;1.88;;
44098;SDS011;29762;50.086;14.364;2023-12-29T09:09:22;3.90;;;2.25;;
44098;SDS011;29762;50.086;14.364;2023-12-29T09:19:42;3.97;;;2.28;;
44098;SDS011;29762;50.086;14.364;2023-12-29T09:30:01;6.25;;;2.33;;
44098;SDS011;29762;50.086;14.364;2023-12-29T09:40:22;4.97;;;2.20;;
44098;SDS011;29762;50.086;14.364;2023-12-29T09:50:41;4.85;;;2.17;;
44098;SDS011;29762;50.086;14.364;2023-12-29T10:01:01;2.88;;;2.00;;
44098;SDS011;29762;50.086;14.364;2023-12-29T10:11:22;3.25;;;2.20;;
44098;SDS011;29762;50.086;14.364;2023-12-29T10:21:51;2.40;;;1.60;;
44098;SDS011;29762;50.086;14.364;2023-12-29T10:32:18;4.15;;;1.58;;
44098;SDS011;29762;50.086;14.364;2023-12-29T10:42:37;3.08;;;1.75;;
44098;SDS011;29762;50.086;14.364;2023-12-29T10:53:14;2.88;;;1.80;;
44098;SDS011;29762;50.086;14.364;2023-12-29T11:03:36;2.03;;;1.60;;
44098;SDS011;29762;50.086;14.364;2023-12-29T11:13:56;3.78;;;1.98;;
44098;SDS011;29762;50.086;14.364;2023-12-29T11:24:16;2.15;;;1.38;;
44098;SDS011;29762;50.086;14.364;2023-12-29T11:34:38;2.63;;;1.42;;
44098;SDS011;29762;50.086;14.364;2023-12-29T11:55:43;2.10;;;1.52;;
44098;SDS011;29762;50.086;14.364;2023-12-29T12:06:03;1.98;;;1.30;;
44098;SDS011;29762;50.086;14.364;2023-12-29T12:27:09;1.77;;;1.40;;
44098;SDS011;29762;50.086;14.364;2023-12-29T12:37:29;1.55;;;1.20;;
44098;SDS011;29762;50.086;14.364;2023-12-29T12:47:53;1.65;;;1.42;;
44098;SDS011;29762;50.086;14.364;2023-12-29T12:58:14;1.67;;;1.08;;
44098;SDS011;29762;50.086;14.364;2023-12-29T13:08:34;2.63;;;1.35;;
44098;SDS011;29762;50.086;14.364;2023-12-29T13:18:53;1.30;;;1.02;;
44098;SDS011;29762;50.086;14.364;2023-12-29T13:29:13;1.55;;;1.10;;
44098;SDS011;29762;50.086;14.364;2023-12-29T13:39:42;1.70;;;1.20;;
44098;SDS011;29762;50.086;14.364;2023-12-29T13:50:25;1.45;;;1.25;;
44098;SDS011;29762;50.086;14.364;2023-12-29T14:00:46;1.60;;;1.10;;
44098;SDS011;29762;50.086;14.364;2023-12-29T14:11:13;1.85;;;1.10;;
44098;SDS011;29762;50.086;14.364;2023-12-29T14:21:33;0.90;;;0.73;;
44098;SDS011;29762;50.086;14.364;2023-12-29T14:31:53;3.38;;;1.00;;
44098;SDS011;29762;50.086;14.364;2023-12-29T14:42:15;4.65;;;0.90;;
44098;SDS011;29762;50.086;14.364;2023-12-29T14:52:35;3.20;;;0.98;;
44098;SDS011;29762;50.086;14.364;2023-12-29T15:02:55;2.60;;;1.13;;
44098;SDS011;29762;50.086;14.364;2023-12-29T15:13:15;1.58;;;0.98;;
44098;SDS011;29762;50.086;14.364;2023-12-29T15:23:35;1.55;;;0.98;;
44098;SDS011;29762;50.086;14.364;2023-12-29T15:33:55;1.50;;;0.80;;
44098;SDS011;29762;50.086;14.364;2023-12-29T15:44:15;1.95;;;1.10;;
44098;SDS011;29762;50.086;14.364;2023-12-29T15:54:34;1.58;;;0.80;;
44098;SDS011;29762;50.086;14.364;2023-12-29T16:04:54;3.15;;;0.90;;
44098;SDS011;29762;50.086;14.364;2023-12-29T16:15:13;2.45;;;0.90;;
44098;SDS011;29762;50.086;14.364;2023-12-29T16:25:33;2.05;;;0.70;;
44098;SDS011;29762;50.086;14.364;2023-12-29T16:35:52;1.10;;;1.00;;
44098;SDS011;29762;50.086;14.364;2023-12-29T16:46:12;1.55;;;1.02;;
44098;SDS011;29762;50.086;14.364;2023-12-29T16:56:31;1.48;;;0.70;;
44098;SDS011;29762;50.086;14.364;2023-12-29T17:06:50;0.85;;;0.82;;
44098;SDS011;29762;50.086;14.364;2023-12-29T17:17:10;0.70;;;0.70;;
44098;SDS011;29762;50.086;14.364;2023-12-29T17:27:30;1.65;;;0.80;;
44098;SDS011;29762;50.086;14.364;2023-12-29T17:37:49;1.70;;;1.10;;
44098;SDS011;29762;50.086;14.364;2023-12-29T17:48:09;2.00;;;0.90;;
44098;SDS011;29762;50.086;14.364;2023-12-29T17:58:29;1.15;;;0.82;;
44098;SDS011;29762;50.086;14.364;2023-12-29T18:08:49;0.70;;;0.68;;
44098;SDS011;29762;50.086;14.364;2023-12-29T18:19:10;1.35;;;0.80;;
44098;SDS011;29762;50.086;14.364;2023-12-29T18:29:29;0.93;;;0.75;;
44098;SDS011;29762;50.086;14.364;2023-12-29T18:39:49;3.30;;;0.80;;
44098;SDS011;29762;50.086;14.364;2023-12-29T18:50:09;3.22;;;0.80;;
44098;SDS011;29762;50.086;14.364;2023-12-29T19:00:31;1.42;;;0.70;;
44098;SDS011;29762;50.086;14.364;2023-12-29T19:10:51;2.55;;;0.70;;
44098;SDS011;29762;50.086;14.364;2023-12-29T19:21:10;4.65;;;3.90;;
44098;SDS011;29762;50.086;14.364;2023-12-29T19:31:30;6.07;;;2.88;;
44098;SDS011;29762;50.086;14.364;2023-12-29T19:41:50;6.00;;;3.00;;
44098;SDS011;29762;50.086;14.364;2023-12-29T19:52:10;4.18;;;2.70;;
44098;SDS011;29762;50.086;14.364;2023-12-29T20:02:30;5.90;;;2.63;;
44098;SDS011;29762;50.086;14.364;2023-12-29T20:12:50;2.85;;;2.42;;
44098;SDS011;29762;50.086;14.364;2023-12-29T20:23:10;3.90;;;2.10;;
44098;SDS011;29762;50.086;14.364;2023-12-29T20:33:30;2.75;;;2.20;;
44098;SDS011;29762;50.086;14.364;2023-12-29T20:43:49;2.88;;;2.40;;
44098;SDS011;29762;50.086;14.364;2023-12-29T20:54:13;2.95;;;2.17;;
44098;SDS011;29762;50.086;14.364;2023-12-29T21:04:34;2.72;;;2.15;;
44098;SDS011;29762;50.086;14.364;2023-12-29T21:14:54;2.58;;;2.13;;
44098;SDS011;29762;50.086;14.364;2023-12-29T21:25:14;3.42;;;2.50;;
44098;SDS011;29762;50.086;14.364;2023-12-29T21:35:34;3.28;;;2.25;;
44098;SDS011;29762;50.086;14.364;2023-12-29T21:45:54;89.45;;;37.60;;
44098;SDS011;29762;50.086;14.364;2023-12-29T21:56:14;51.50;;;20.73;;
44098;SDS011;29762;50.086;14.364;2023-12-29T22:06:33;37.00;;;16.10;;
44098;SDS011;29762;50.086;14.364;2023-12-29T22:16:54;35.92;;;14.15;;
44098;SDS011;29762;50.086;14.364;2023-12-29T22:27:13;27.00;;;12.88;;
44098;SDS011;29762;50.086;14.364;2023-12-29T22:37:33;30.08;;;12.05;;
44098;SDS011;29762;50.086;14.364;2023-12-29T22:47:53;24.73;;;11.00;;
44098;SDS011;29762;50.086;14.364;2023-12-29T22:58:12;21.63;;;9.95;;
44098;SDS011;29762;50.086;14.364;2023-12-29T23:08:31;22.50;;;9.57;;
44098;SDS011;29762;50.086;14.364;2023-12-29T23:18:54;15.73;;;9.38;;
44098;SDS011;29762;50.086;14.364;2023-12-29T23:29:13;18.38;;;9.63;;
44098;SDS011;29762;50.086;14.364;2023-12-29T23:39:33;17.33;;;8.25;;
44098;SDS011;29762;50.086;14.364;2023-12-29T23:49:52;16.27;;;8.00;;
